Wetterdaten: aktuell Dienstag, 18.06.2019 08:30
Datum Zeit Temp. A. Feuchte A. Luftdruck Regen Wind UV Solar Windben
18.06.2019 08:30 20,1 C 66 % 1016,3 hPa 0,0 l/m 8,1 km/h (2 Bft) 0,0 UV-I 470 W/m 12,9 km/h (3 Bft)
18.06.2019 07:30 18,6 C 73 % 1016,6 hPa 0,0 l/m 3,3 km/h (1 Bft) 0,0 UV-I 313 W/m 8,0 km/h (2 Bft)
18.06.2019 06:30 16,3 C 79 % 1016,4 hPa 0,0 l/m 0,0 km/h (0 Bft) 0,0 UV-I 62 W/m 0,0 km/h (0 Bft)
18.06.2019 05:30 15,7 C 79 % 1016,5 hPa 0,0 l/m 2,9 km/h (1 Bft) 0,0 UV-I 18 W/m 4,8 km/h (1 Bft)
18.06.2019 04:30 14,5 C 83 % 1016,5 hPa 0,0 l/m 0,0 km/h (0 Bft) 0,0 UV-I 0 W/m 0,0 km/h (0 Bft)
18.06.2019 03:30 15,8 C 78 % 1016,8 hPa 0,0 l/m 2,5 km/h (1 Bft) 0,0 UV-I 0 W/m 4,8 km/h (1 Bft)
18.06.2019 02:30 16,3 C 78 % 1017,1 hPa 0,0 l/m 3,0 km/h (1 Bft) 0,0 UV-I 0 W/m 4,8 km/h (1 Bft)
18.06.2019 01:30 15,3 C 81 % 1017,6 hPa 0,0 l/m 0,4 km/h (0 Bft) 0,0 UV-I 0 W/m 4,8 km/h (1 Bft)
18.06.2019 00:30 15,2 C 82 % 1017,7 hPa 0,0 l/m 0,0 km/h (0 Bft) 0,0 UV-I 0 W/m 0,0 km/h (0 Bft)
17.06.2019 23:30 16,0 C 78 % 1017,8 hPa 0,0 l/m 0,6 km/h (0 Bft) 0,0 UV-I 0 W/m 4,8 km/h (1 Bft)
17.06.2019 22:30 16,3 C 80 % 1017,6 hPa 0,0 l/m 0,0 km/h (0 Bft) 0,0 UV-I 0 W/m 0,0 km/h (0 Bft)
17.06.2019 21:30 17,3 C 79 % 1017,5 hPa 0,0 l/m 0,0 km/h (0 Bft) 0,0 UV-I 4 W/m 0,0 km/h (0 Bft)
17.06.2019 20:30 20,4 C 70 % 1017,4 hPa 0,0 l/m 0,0 km/h (0 Bft) 0,0 UV-I 49 W/m 0,0 km/h (0 Bft)
17.06.2019 19:30 22,3 C 63 % 1017,3 hPa 0,0 l/m 0,5 km/h (0 Bft) 0,0 UV-I 197 W/m 3,2 km/h (1 Bft)
17.06.2019 18:30 23,2 C 62 % 1017,6 hPa 0,0 l/m 0,5 km/h (0 Bft) 0,0 UV-I 352 W/m 4,8 km/h (1 Bft)
17.06.2019 17:30 23,5 C 59 % 1018,0 hPa 0,0 l/m 3,7 km/h (1 Bft) 0,0 UV-I 198 W/m 8,0 km/h (2 Bft)
17.06.2019 16:30 23,1 C 63 % 1018,6 hPa 0,0 l/m 0,5 km/h (0 Bft) 0,0 UV-I 262 W/m 3,2 km/h (1 Bft)
17.06.2019 15:30 23,9 C 59 % 1019,0 hPa 0,0 l/m 4,2 km/h (1 Bft) 0,0 UV-I 790 W/m 9,7 km/h (2 Bft)
17.06.2019 14:30 23,1 C 60 % 1019,5 hPa 0,0 l/m 3,1 km/h (1 Bft) 0,1 UV-I 195 W/m 9,7 km/h (2 Bft)
17.06.2019 13:30 22,9 C 62 % 1019,6 hPa 0,0 l/m 4,0 km/h (1 Bft) 1,2 UV-I 896 W/m 9,7 km/h (2 Bft)
17.06.2019 12:30 22,4 C 59 % 1020,1 hPa 0,0 l/m 0,0 km/h (0 Bft) 1,7 UV-I 880 W/m 0,0 km/h (0 Bft)
17.06.2019 11:30 21,4 C 59 % 1020,1 hPa 0,0 l/m 1,5 km/h (1 Bft) 0,6 UV-I 826 W/m 4,8 km/h (1 Bft)
17.06.2019 10:30 20,8 C 60 % 1020,4 hPa 0,0 l/m 1,2 km/h (1 Bft) 0,0 UV-I 739 W/m 4,8 km/h (1 Bft)
17.06.2019 09:30 19,6 C 64 % 1020,7 hPa 0,0 l/m 1,3 km/h (1 Bft) 0,0 UV-I 614 W/m 4,8 km/h (1 Bft)
17.06.2019 09:00 19,3 C 65 % 1020,9 hPa 0,0 l/m 0,5 km/h (0 Bft) 0,0 UV-I 541 W/m 3,2 km/h (1 Bft)
_ Min-Zeit 04:44 10:48 06:06 - 09:02 - - 09:02
Minimum _ 14,1 C 55 % 1016,3 hPa - 0,0 km/h (0 Bft) - - 0,0 km/h (0 Bft)
_ Max-Zeit 15:22 00:50 09:00 09:00 07:54 12:34 14:24 08:20
Maximum _ 23,9 C 84 % 1020,9 hPa 0,0 l/m 9,0 km/h
S-SO (2 Bft)
2,1 UV-I 939 W/m 17,7 km/h
S-SO (3 Bft)
Durchschnitt _ 19,3 C 70 % 1018,3 hPa #0,0 l/m 1,5 km/h (1 Bft) 0,0 UV-I 177 W/m 4,3 km/h (1 Bft)